createdAt,value
2019-04-14T00:00:55.389Z,6.30
2019-04-14T00:03:46.241Z,6.30
2019-04-14T00:06:15.944Z,6.30
2019-04-14T00:08:45.932Z,6.30
2019-04-14T00:11:15.378Z,6.30
2019-04-14T00:13:45.665Z,6.30
2019-04-14T00:16:16.418Z,6.30
2019-04-14T00:18:46.882Z,6.30
2019-04-14T00:21:17.252Z,6.30
2019-04-14T00:23:47.821Z,6.30
2019-04-14T00:26:31.490Z,6.30
2019-04-14T00:29:02.693Z,6.30
2019-04-14T00:31:32.903Z,6.30
2019-04-14T00:34:05.370Z,6.20
2019-04-14T00:36:43.688Z,6.20
2019-04-14T00:39:21.033Z,6.20
2019-04-14T00:41:58.384Z,6.20
2019-04-14T00:44:40.875Z,6.20
2019-04-14T00:47:12.160Z,6.20
2019-04-14T00:49:41.875Z,6.20
2019-04-14T00:52:12.387Z,6.20
2019-04-14T00:54:42.122Z,6.20
2019-04-14T00:57:11.569Z,6.20
2019-04-14T00:59:42.126Z,6.20
2019-04-14T01:02:12.395Z,6.20
2019-04-14T01:04:42.636Z,6.20
2019-04-14T01:07:13.050Z,6.20
2019-04-14T01:09:42.406Z,6.20
2019-04-14T01:12:12.724Z,6.20
2019-04-14T01:14:43.092Z,6.20
2019-04-14T01:17:13.416Z,6.20
2019-04-14T01:19:43.890Z,6.20
2019-04-14T01:22:14.178Z,6.30
2019-04-14T01:24:44.618Z,6.20
2019-04-14T01:27:14.581Z,6.30
2019-04-14T01:29:44.882Z,6.30
2019-04-14T01:32:15.395Z,6.30
2019-04-14T01:34:45.515Z,6.30
2019-04-14T01:37:15.927Z,6.20
2019-04-14T01:39:46.061Z,6.20
2019-04-14T01:42:15.893Z,6.20
2019-04-14T01:44:45.968Z,6.30
2019-04-14T01:47:15.936Z,6.20
2019-04-14T01:49:46.538Z,6.20
2019-04-14T01:52:23.258Z,6.20
2019-04-14T01:54:54.257Z,6.20
2019-04-14T01:57:43.802Z,6.20
2019-04-14T02:00:31.666Z,6.20
2019-04-14T02:03:01.934Z,6.20
2019-04-14T02:05:32.095Z,6.20
2019-04-14T02:08:02.339Z,6.20
2019-04-14T02:10:32.645Z,6.20
2019-04-14T02:13:02.798Z,6.20
2019-04-14T02:15:33.038Z,6.20
2019-04-14T02:18:03.228Z,6.20
2019-04-14T02:20:33.839Z,6.20
2019-04-14T02:23:03.999Z,6.20
2019-04-14T02:25:33.882Z,6.20
2019-04-14T02:28:04.682Z,6.20
2019-04-14T02:30:41.628Z,6.20
2019-04-14T02:33:40.785Z,6.20
2019-04-14T02:36:05.749Z,6.20
2019-04-14T02:38:40.914Z,6.20
2019-04-14T02:41:11.006Z,6.20
2019-04-14T02:43:39.614Z,6.20
2019-04-14T02:46:04.145Z,6.20
2019-04-14T02:48:44.200Z,6.20
2019-04-14T02:51:05.765Z,6.20
2019-04-14T02:53:44.460Z,6.20
2019-04-14T02:56:18.160Z,6.20
2019-04-14T02:58:50.013Z,6.10
2019-04-14T03:03:43.562Z,6.20
2019-04-14T03:06:13.030Z,6.10
2019-04-14T03:08:51.240Z,6.20
2019-04-14T03:11:20.595Z,6.20
2019-04-14T03:16:27.208Z,6.10
2019-04-14T03:18:55.221Z,6.10
2019-04-14T03:21:34.788Z,6.10
2019-04-14T03:24:03.081Z,6.20
2019-04-14T03:26:41.903Z,6.20
2019-04-14T03:29:21.161Z,6.20
2019-04-14T03:34:34.425Z,6.20
2019-04-14T03:39:24.876Z,6.10
2019-04-14T03:41:52.778Z,6.20
2019-04-14T03:44:32.991Z,6.10
2019-04-14T03:46:59.021Z,6.10
2019-04-14T03:49:32.120Z,6.10
2019-04-14T03:51:57.864Z,6.10
2019-04-14T03:54:28.730Z,6.20
2019-04-14T03:56:51.440Z,6.20
2019-04-14T03:59:21.874Z,6.10
2019-04-14T04:01:52.306Z,6.20
2019-04-14T04:04:22.729Z,6.20
2019-04-14T04:06:53.153Z,6.20
2019-04-14T04:09:25.625Z,6.20
2019-04-14T04:11:56.209Z,6.20
2019-04-14T04:14:26.975Z,6.20
2019-04-14T04:17:14.624Z,6.20
2019-04-14T04:19:46.906Z,6.20
2019-04-14T04:22:19.254Z,6.20
2019-04-14T04:24:56.450Z,6.20
2019-04-14T04:27:37.336Z,6.20
2019-04-14T04:30:10.197Z,6.20
2019-04-14T04:32:47.076Z,6.10
2019-04-14T04:35:18.038Z,6.10
2019-04-14T04:37:52.082Z,6.10
2019-04-14T04:40:24.716Z,6.10
2019-04-14T04:42:54.815Z,6.10
2019-04-14T04:45:25.587Z,6.10
2019-04-14T04:47:55.599Z,6.10
2019-04-14T04:50:26.006Z,6.10
2019-04-14T04:52:56.218Z,6.10
2019-04-14T04:55:26.292Z,6.10
2019-04-14T04:57:56.629Z,6.10
2019-04-14T05:00:26.656Z,6.10
2019-04-14T05:02:57.120Z,6.10
2019-04-14T05:06:03.223Z,6.10
2019-04-14T05:08:34.728Z,6.10
2019-04-14T05:11:06.019Z,6.10
2019-04-14T05:13:36.737Z,6.10
2019-04-14T05:16:06.527Z,6.10
2019-04-14T05:18:35.867Z,6.10
2019-04-14T05:21:06.056Z,6.20
2019-04-14T05:23:36.624Z,6.20
2019-04-14T05:26:07.078Z,6.20
2019-04-14T05:28:37.411Z,6.20
2019-04-14T05:31:07.622Z,6.20
2019-04-14T05:33:38.375Z,6.20
2019-04-14T05:36:08.527Z,6.20
2019-04-14T05:38:38.633Z,6.20
2019-04-14T05:41:09.005Z,6.20
2019-04-14T05:43:48.144Z,6.20
2019-04-14T05:46:09.841Z,6.20
2019-04-14T05:48:40.312Z,6.20
2019-04-14T05:51:10.660Z,6.30
2019-04-14T05:53:41.494Z,6.30
2019-04-14T05:56:12.087Z,6.30
2019-04-14T05:58:42.531Z,6.40
2019-04-14T06:01:13.580Z,6.50
2019-04-14T06:03:43.315Z,6.50
2019-04-14T06:06:12.672Z,6.60
2019-04-14T06:08:42.067Z,6.70
2019-04-14T06:11:11.385Z,6.80
2019-04-14T06:13:40.713Z,6.90
2019-04-14T06:16:10.042Z,7.00
2019-04-14T06:18:39.454Z,7.10
2019-04-14T06:21:08.782Z,7.20
2019-04-14T06:23:38.130Z,7.30
2019-04-14T06:26:07.450Z,7.30
2019-04-14T06:28:36.790Z,7.40
2019-04-14T06:31:26.064Z,7.40
2019-04-14T06:34:05.769Z,7.50
2019-04-14T06:36:51.758Z,7.50
2019-04-14T06:39:22.738Z,7.50
2019-04-14T06:41:52.081Z,7.60
2019-04-14T06:44:21.418Z,7.60
2019-04-14T06:46:50.742Z,7.60
2019-04-14T06:49:20.086Z,7.60
2019-04-14T06:51:49.406Z,7.70
2019-04-14T06:54:18.754Z,7.70
2019-04-14T06:56:48.072Z,7.80
2019-04-14T06:59:17.402Z,8.00
2019-04-14T07:01:46.734Z,8.10
2019-04-14T07:04:16.066Z,8.30
2019-04-14T07:06:45.707Z,8.50
2019-04-14T07:09:15.065Z,8.70
2019-04-14T07:11:44.474Z,8.90
2019-04-14T07:14:14.789Z,9.00
2019-04-14T07:16:44.115Z,9.20
2019-04-14T07:19:13.446Z,9.40
2019-04-14T07:21:42.787Z,9.60
2019-04-14T07:24:12.118Z,9.80
2019-04-14T07:26:41.723Z,9.80
2019-04-14T07:29:11.094Z,9.90
2019-04-14T07:32:00.307Z,10.00
2019-04-14T07:34:37.229Z,10.10
2019-04-14T07:37:19.068Z,10.20
2019-04-14T07:39:52.887Z,10.30
2019-04-14T07:42:41.550Z,10.50
2019-04-14T07:45:12.794Z,10.60
2019-04-14T07:47:43.766Z,10.70
2019-04-14T07:50:17.606Z,10.80
2019-04-14T07:52:51.591Z,10.80
2019-04-14T07:55:25.329Z,10.80
2019-04-14T07:57:58.986Z,10.90
2019-04-14T08:00:45.086Z,10.90
2019-04-14T08:03:28.016Z,11.00
2019-04-14T08:05:57.354Z,11.20
2019-04-14T08:08:26.698Z,11.30
2019-04-14T08:10:57.291Z,11.50
2019-04-14T08:13:26.619Z,11.70
2019-04-14T08:15:55.961Z,11.90
2019-04-14T08:18:25.287Z,12.00
2019-04-14T08:20:54.640Z,12.10
2019-04-14T08:23:24.038Z,12.20
2019-04-14T08:25:53.378Z,12.30
2019-04-14T08:28:22.717Z,12.40
2019-04-14T08:30:52.069Z,12.50
2019-04-14T08:33:21.402Z,12.60
2019-04-14T08:35:50.753Z,12.80
2019-04-14T08:38:20.073Z,13.00
2019-04-14T08:40:49.431Z,13.20
2019-04-14T08:43:24.070Z,13.40
2019-04-14T08:45:57.816Z,13.60
2019-04-14T08:48:47.268Z,13.80
2019-04-14T08:51:27.422Z,14.00
2019-04-14T08:54:00.886Z,14.20
2019-04-14T08:56:40.750Z,14.30
2019-04-14T08:59:14.149Z,14.40
2019-04-14T09:01:57.086Z,14.50
2019-04-14T09:04:36.834Z,14.60
2019-04-14T09:07:07.833Z,14.60
2019-04-14T09:09:41.580Z,14.60
2019-04-14T09:12:18.434Z,14.50
2019-04-14T09:14:56.742Z,14.50
2019-04-14T09:17:19.155Z,14.40
2019-04-14T09:19:48.492Z,14.50
2019-04-14T09:22:17.830Z,14.60
2019-04-14T09:24:47.165Z,14.70
2019-04-14T09:27:16.503Z,14.90
2019-04-14T09:29:45.833Z,15.00
2019-04-14T09:32:15.354Z,15.20
2019-04-14T09:34:45.757Z,15.30
2019-04-14T09:37:15.141Z,15.40
2019-04-14T09:39:44.505Z,15.50
2019-04-14T09:42:13.850Z,15.60
2019-04-14T09:44:43.188Z,15.70
2019-04-14T09:47:12.562Z,15.70
2019-04-14T09:49:42.002Z,15.80
2019-04-14T09:52:11.367Z,15.90
2019-04-14T09:54:40.745Z,16.10
2019-04-14T09:57:10.115Z,16.20
2019-04-14T09:59:39.438Z,16.30
2019-04-14T10:02:08.778Z,16.40
2019-04-14T10:04:38.207Z,16.50
2019-04-14T10:07:07.542Z,16.50
2019-04-14T10:09:36.967Z,16.60
2019-04-14T10:12:06.442Z,16.70
2019-04-14T10:14:35.797Z,16.80
2019-04-14T10:17:05.198Z,16.90
2019-04-14T10:19:34.544Z,16.90
2019-04-14T10:22:03.872Z,17.00
2019-04-14T10:24:33.213Z,17.10
2019-04-14T10:27:03.610Z,17.20
2019-04-14T10:29:32.953Z,17.30
2019-04-14T10:32:02.364Z,17.40
2019-04-14T10:34:31.703Z,17.50
2019-04-14T10:37:01.047Z,17.60
2019-04-14T10:39:30.391Z,17.70
2019-04-14T10:41:59.717Z,17.70
2019-04-14T10:44:29.057Z,17.80
2019-04-14T10:46:58.389Z,17.90
2019-04-14T10:49:27.731Z,17.90
2019-04-14T10:51:57.128Z,17.90
2019-04-14T10:54:26.476Z,18.00
2019-04-14T10:56:55.799Z,18.00
2019-04-14T10:59:25.158Z,18.10
2019-04-14T11:01:54.540Z,18.20
2019-04-14T11:04:23.895Z,18.30
2019-04-14T11:07:03.862Z,18.40
2019-04-14T11:09:33.193Z,18.40
2019-04-14T11:12:02.526Z,18.50
2019-04-14T11:14:31.857Z,18.60
2019-04-14T11:17:01.186Z,18.70
2019-04-14T11:19:30.532Z,18.80
2019-04-14T11:21:59.866Z,18.90
2019-04-14T11:24:29.210Z,19.00
2019-04-14T11:26:58.534Z,19.00
2019-04-14T11:29:27.875Z,19.00
2019-04-14T11:32:07.618Z,18.90
2019-04-14T11:34:38.593Z,18.80
2019-04-14T11:37:15.037Z,18.60
2019-04-14T11:39:45.699Z,18.50
2019-04-14T11:42:15.126Z,18.30
2019-04-14T11:44:44.781Z,18.10
2019-04-14T11:47:16.239Z,17.90
2019-04-14T11:49:45.250Z,17.70
2019-04-14T11:52:14.582Z,17.50
2019-04-14T11:54:43.926Z,17.40
2019-04-14T11:57:13.251Z,17.30
2019-04-14T11:59:53.443Z,17.20
2019-04-14T12:02:26.858Z,17.20
2019-04-14T12:05:06.379Z,17.10
2019-04-14T12:07:49.334Z,17.00
2019-04-14T12:10:18.947Z,17.00
2019-04-14T12:12:48.274Z,16.90
2019-04-14T12:15:17.635Z,16.80
2019-04-14T12:17:46.971Z,16.80
2019-04-14T12:20:16.373Z,16.80
2019-04-14T12:22:45.717Z,16.70
2019-04-14T12:25:15.037Z,16.70
2019-04-14T12:27:44.412Z,16.70
2019-04-14T12:30:13.926Z,16.60
2019-04-14T12:32:43.347Z,16.60
2019-04-14T12:35:13.105Z,16.60
2019-04-14T12:37:42.452Z,16.50
2019-04-14T12:40:12.041Z,16.40
2019-04-14T12:42:46.153Z,16.30
2019-04-14T12:45:33.606Z,16.30
2019-04-14T12:48:13.581Z,16.20
2019-04-14T12:50:44.546Z,16.10
2019-04-14T12:53:13.889Z,16.10
2019-04-14T12:55:43.213Z,16.10
2019-04-14T12:58:14.208Z,16.10
2019-04-14T13:00:45.169Z,16.10
2019-04-14T13:03:14.555Z,16.10
2019-04-14T13:05:44.020Z,16.10
2019-04-14T13:08:13.372Z,16.10
2019-04-14T13:10:42.698Z,16.10
2019-04-14T13:13:12.039Z,16.00
2019-04-14T13:15:41.370Z,16.00
2019-04-14T13:18:10.786Z,16.00
2019-04-14T13:20:40.184Z,15.90
2019-04-14T13:23:09.527Z,15.90
2019-04-14T13:25:38.855Z,15.90
2019-04-14T13:28:09.168Z,15.80
2019-04-14T13:30:40.127Z,15.80
2019-04-14T13:33:09.470Z,15.80
2019-04-14T13:35:38.849Z,15.80
2019-04-14T13:38:08.214Z,15.80
2019-04-14T13:40:37.543Z,15.80
2019-04-14T13:43:06.890Z,15.80
2019-04-14T13:45:36.218Z,15.80
2019-04-14T13:48:05.554Z,15.80
2019-04-14T13:50:34.869Z,15.80
2019-04-14T13:53:05.131Z,15.80
2019-04-14T13:55:34.469Z,15.80
2019-04-14T13:58:03.885Z,15.80
2019-04-14T14:00:33.352Z,15.80
2019-04-14T14:03:02.767Z,15.80
2019-04-14T14:05:32.094Z,15.70
2019-04-14T14:08:01.454Z,15.70
2019-04-14T14:10:31.953Z,15.70
2019-04-14T14:13:19.698Z,15.70
2019-04-14T14:16:06.708Z,15.70
2019-04-14T14:18:40.094Z,15.70
2019-04-14T14:21:13.994Z,15.60
2019-04-14T14:23:53.943Z,15.60
2019-04-14T14:26:33.926Z,15.50
2019-04-14T14:29:03.270Z,15.40
2019-04-14T14:31:32.609Z,15.40
2019-04-14T14:34:01.997Z,15.40
2019-04-14T14:36:31.403Z,15.40
2019-04-14T14:39:00.734Z,15.40
2019-04-14T14:41:31.690Z,15.30
2019-04-14T14:44:01.046Z,15.40
2019-04-14T14:46:37.720Z,15.30
2019-04-14T14:49:14.493Z,15.30
2019-04-14T14:51:57.701Z,15.20
2019-04-14T14:54:28.110Z,15.20
2019-04-14T14:56:57.511Z,15.20
2019-04-14T14:59:26.844Z,15.10
2019-04-14T15:01:56.174Z,15.10
2019-04-14T15:04:25.512Z,15.00
2019-04-14T15:06:54.826Z,15.00
2019-04-14T15:09:24.171Z,14.90
2019-04-14T15:11:53.514Z,14.90
2019-04-14T15:14:22.849Z,14.80
2019-04-14T15:16:52.242Z,14.80
2019-04-14T15:19:21.851Z,14.70
2019-04-14T15:21:51.309Z,14.70
2019-04-14T15:24:20.640Z,14.60
2019-04-14T15:26:49.981Z,14.60
2019-04-14T15:29:19.365Z,14.50
2019-04-14T15:31:48.722Z,14.50
2019-04-14T15:34:18.061Z,14.40
2019-04-14T15:36:47.390Z,14.40
2019-04-14T15:39:16.713Z,14.40
2019-04-14T15:41:46.076Z,14.30
2019-04-14T15:44:15.503Z,14.30
2019-04-14T15:46:45.903Z,14.30
2019-04-14T15:49:15.216Z,14.30
2019-04-14T15:51:44.555Z,14.20
2019-04-14T15:54:13.877Z,14.20
2019-04-14T15:56:44.911Z,14.10
2019-04-14T15:59:18.602Z,14.10
2019-04-14T16:01:49.662Z,14.00
2019-04-14T16:04:20.860Z,14.00
2019-04-14T16:06:54.621Z,13.90
2019-04-14T16:09:43.838Z,13.80
2019-04-14T16:12:14.813Z,13.80
2019-04-14T16:14:57.979Z,13.70
2019-04-14T16:17:40.976Z,13.70
2019-04-14T16:20:17.672Z,13.70
2019-04-14T16:22:47.082Z,13.60
2019-04-14T16:25:16.456Z,13.50
2019-04-14T16:27:47.502Z,13.40
2019-04-14T16:30:31.131Z,13.40
2019-04-14T16:33:02.201Z,13.30
2019-04-14T16:35:34.307Z,13.20
2019-04-14T16:38:03.749Z,13.20
2019-04-14T16:40:33.250Z,13.10
2019-04-14T16:43:02.602Z,13.00
2019-04-14T16:45:32.046Z,12.90
2019-04-14T16:48:01.395Z,12.90
2019-04-14T16:50:30.780Z,12.80
2019-04-14T16:53:04.423Z,12.70
2019-04-14T16:55:35.386Z,12.70
2019-04-14T16:58:21.682Z,12.60
2019-04-14T17:01:01.712Z,12.60
2019-04-14T17:03:32.231Z,12.50
2019-04-14T17:06:01.561Z,12.40
2019-04-14T17:08:31.978Z,12.30
2019-04-14T17:11:01.296Z,12.20
2019-04-14T17:13:32.540Z,12.20
2019-04-14T17:16:20.035Z,12.10
2019-04-14T17:19:05.771Z,12.00
2019-04-14T17:21:42.638Z,11.90
2019-04-14T17:24:17.011Z,11.90
2019-04-14T17:26:53.590Z,11.80
2019-04-14T17:29:39.891Z,11.70
2019-04-14T17:32:16.816Z,11.70
2019-04-14T17:35:01.110Z,11.60
2019-04-14T17:37:50.043Z,11.50
2019-04-14T17:40:26.911Z,11.40
2019-04-14T17:43:09.735Z,11.30
2019-04-14T17:45:50.732Z,11.30
2019-04-14T17:48:41.513Z,11.20
2019-04-14T17:51:12.486Z,11.10
2019-04-14T17:53:43.458Z,11.10
2019-04-14T17:56:20.418Z,11.00
2019-04-14T17:59:09.798Z,11.00
2019-04-14T18:01:41.110Z,10.90
2019-04-14T18:04:30.417Z,10.80
2019-04-14T18:07:01.802Z,10.80
2019-04-14T18:09:50.758Z,10.80
2019-04-14T18:12:24.750Z,10.70
2019-04-14T18:14:55.745Z,10.70
2019-04-14T18:17:26.705Z,10.60
2019-04-14T18:20:03.795Z,10.60
2019-04-14T18:22:33.133Z,10.50
2019-04-14T18:25:02.573Z,10.50
2019-04-14T18:27:33.703Z,10.50
2019-04-14T18:30:21.267Z,10.40
2019-04-14T18:32:55.150Z,10.40
2019-04-14T18:35:31.568Z,10.40
2019-04-14T18:38:08.219Z,10.30
2019-04-14T18:40:42.125Z,10.20
2019-04-14T18:43:29.258Z,10.20
2019-04-14T18:46:00.241Z,10.20
2019-04-14T18:48:33.670Z,10.10
2019-04-14T18:51:04.637Z,10.10
2019-04-14T18:53:52.102Z,10.10
2019-04-14T18:56:23.089Z,10.10
2019-04-14T18:58:56.750Z,10.00
2019-04-14T19:01:27.794Z,9.90
2019-04-14T19:03:57.197Z,9.90
2019-04-14T19:06:26.525Z,9.90
2019-04-14T19:08:55.860Z,9.90
2019-04-14T19:11:29.346Z,9.80
2019-04-14T19:14:00.317Z,9.80
2019-04-14T19:16:40.528Z,9.80
2019-04-14T19:19:11.165Z,9.80
2019-04-14T19:21:40.486Z,9.70
2019-04-14T19:24:09.811Z,9.70
2019-04-14T19:26:39.199Z,9.60
2019-04-14T19:29:08.578Z,9.60
2019-04-14T19:31:37.926Z,9.60
2019-04-14T19:34:07.255Z,9.60
2019-04-14T19:36:36.663Z,9.50
2019-04-14T19:39:09.986Z,9.50
2019-04-14T19:41:39.849Z,9.50
2019-04-14T19:44:09.203Z,9.40
2019-04-14T19:46:38.529Z,9.40
2019-04-14T19:49:07.850Z,9.40
2019-04-14T19:51:37.174Z,9.40
2019-04-14T19:54:06.493Z,9.30
2019-04-14T19:56:35.906Z,9.30
2019-04-14T19:59:05.226Z,9.30
2019-04-14T20:01:34.549Z,9.20
2019-04-14T20:04:03.861Z,9.20
2019-04-14T20:06:33.226Z,9.20
2019-04-14T20:09:02.906Z,9.20
2019-04-14T20:11:33.933Z,9.10
2019-04-14T20:14:03.317Z,9.10
2019-04-14T20:16:37.232Z,9.10
2019-04-14T20:19:17.481Z,9.10
2019-04-14T20:21:57.518Z,9.00
2019-04-14T20:24:36.986Z,9.00
2019-04-14T20:27:10.646Z,9.00
2019-04-14T20:29:50.302Z,8.90
2019-04-14T20:32:27.010Z,8.90
2019-04-14T20:34:56.398Z,8.90
2019-04-14T20:37:25.725Z,8.90
2019-04-14T20:39:55.042Z,8.90
2019-04-14T20:42:24.371Z,8.80
2019-04-14T20:44:53.684Z,8.80
2019-04-14T20:47:23.015Z,8.80
2019-04-14T20:49:52.318Z,8.80
2019-04-14T20:52:22.617Z,8.80
2019-04-14T20:54:51.954Z,8.70
2019-04-14T20:57:21.274Z,8.70
2019-04-14T20:59:50.588Z,8.70
2019-04-14T21:02:30.353Z,8.70
2019-04-14T21:05:17.921Z,8.70
2019-04-14T21:07:51.567Z,8.60
2019-04-14T21:10:22.528Z,8.60
2019-04-14T21:12:53.484Z,8.60
2019-04-14T21:15:30.302Z,8.60
2019-04-14T21:18:01.281Z,8.60
2019-04-14T21:20:37.722Z,8.60
2019-04-14T21:23:08.685Z,8.60
2019-04-14T21:25:39.646Z,8.60
2019-04-14T21:28:13.691Z,8.60
2019-04-14T21:30:47.417Z,8.60
2019-04-14T21:33:33.475Z,8.60
2019-04-14T21:36:13.303Z,8.60
2019-04-14T21:38:53.133Z,8.70
2019-04-14T21:41:24.078Z,8.70
2019-04-14T21:43:53.482Z,8.70
2019-04-14T21:46:22.870Z,8.70
2019-04-14T21:48:52.197Z,8.70
2019-04-14T21:51:23.147Z,8.70
2019-04-14T21:53:52.479Z,8.80
2019-04-14T21:56:23.373Z,8.80
2019-04-14T21:59:12.666Z,8.80
2019-04-14T22:01:58.517Z,8.90
2019-04-14T22:04:41.337Z,8.90
2019-04-14T22:07:15.062Z,8.90
2019-04-14T22:09:44.450Z,8.90
2019-04-14T22:12:13.841Z,8.90
2019-04-14T22:14:43.177Z,8.90
2019-04-14T22:17:12.490Z,9.00
2019-04-14T22:19:41.824Z,9.00
2019-04-14T22:22:11.139Z,9.00
2019-04-14T22:24:40.457Z,9.00
2019-04-14T22:27:09.783Z,9.00
2019-04-14T22:29:39.173Z,9.10
2019-04-14T22:32:08.473Z,9.10
2019-04-14T22:34:37.810Z,9.10
2019-04-14T22:37:07.334Z,9.10
2019-04-14T22:39:39.109Z,9.10
2019-04-14T22:42:07.685Z,9.10
2019-04-14T22:44:37.019Z,9.10
2019-04-14T22:47:06.327Z,9.10
2019-04-14T22:49:35.654Z,9.10
2019-04-14T22:52:05.144Z,9.10
2019-04-14T22:54:34.463Z,9.10
2019-04-14T22:57:04.824Z,9.10
2019-04-14T22:59:34.155Z,9.00
2019-04-14T23:02:07.839Z,9.00
2019-04-14T23:04:50.511Z,9.00
2019-04-14T23:07:27.545Z,9.00
2019-04-14T23:09:58.529Z,9.00
2019-04-14T23:12:29.566Z,8.90
2019-04-14T23:15:03.421Z,8.90
2019-04-14T23:17:35.437Z,8.90
2019-04-14T23:20:17.482Z,8.90
2019-04-14T23:22:51.178Z,8.80
2019-04-14T23:25:20.506Z,8.80
2019-04-14T23:27:49.826Z,8.70
2019-04-14T23:30:19.154Z,8.70
2019-04-14T23:32:48.543Z,8.70
2019-04-14T23:35:17.872Z,8.70
2019-04-14T23:37:47.183Z,8.60
2019-04-14T23:40:16.650Z,8.60
2019-04-14T23:42:45.975Z,8.60
2019-04-14T23:45:15.479Z,8.60
2019-04-14T23:47:44.864Z,8.50
2019-04-14T23:50:14.343Z,8.50
2019-04-14T23:52:43.664Z,8.40
2019-04-14T23:55:13.150Z,8.40
2019-04-14T23:57:42.467Z,8.30
